Time;durP1;ratioP1;P1;durP2;ratioP2;P2;SDS_P1;SDS_P2;PMS_P1;PMS_P2;Temp;Humidity;BMP_temperature;BMP_pressure;BME280_temperature;BME280_humidity;BME280_pressure;Samples;Min_cycle;Max_cycle;Signal;HPM_P1;HPM_P2
2023/05/22 00:00:12;;;;;;;29.05;9.00;;;;;;;-146.27;96.03;82621.22;5049208;28;20478;-72
2023/05/22 00:02:41;;;;;;;23.75;8.48;;;;;;;-146.27;96.06;82661.41;5069883;28;20047;-72
2023/05/22 00:05:08;;;;;;;29.85;9.13;;;;;;;-146.27;95.51;82665.44;5056574;28;20123;-71
2023/05/22 00:07:34;;;;;;;23.90;8.38;;;;;;;-146.27;95.73;82673.47;5033393;28;20447;-73
2023/05/22 00:09:59;;;;;;;23.67;8.10;;;;;;;-146.27;95.69;82625.25;5051175;28;20021;-73
2023/05/22 00:12:25;;;;;;;23.98;8.35;;;;;;;-146.27;96.47;82685.50;5051644;28;20060;-73
2023/05/22 00:14:51;;;;;;;26.17;8.45;;;;;;;-146.27;96.14;82713.66;5047961;28;20040;-73
2023/05/22 00:17:17;;;;;;;18.65;7.60;;;;;;;-146.27;96.99;82641.31;5047736;28;20032;-73
2023/05/22 00:19:42;;;;;;;17.13;7.75;;;;;;;-146.27;96.54;82677.47;5048505;28;20052;-73
2023/05/22 00:22:08;;;;;;;27.42;9.20;;;;;;;-146.27;96.84;82677.47;5045745;28;20119;-73
2023/05/22 00:24:34;;;;;;;20.75;7.70;;;;;;;-146.27;97.19;82643.31;5046372;28;20033;-73
2023/05/22 00:26:59;;;;;;;25.67;8.07;;;;;;;-146.27;97.14;82745.78;5052563;28;20044;-72
2023/05/22 00:29:25;;;;;;;24.92;8.63;;;;;;;-146.27;97.05;82669.44;5047280;28;20049;-72
2023/05/22 00:31:50;;;;;;;20.42;8.52;;;;;;;-146.27;96.49;82685.50;5047193;28;20396;-73
2023/05/22 00:34:15;;;;;;;25.65;8.55;;;;;;;-146.27;96.78;82665.44;5048570;28;20024;-73
2023/05/22 00:36:41;;;;;;;20.48;7.70;;;;;;;-146.27;97.11;82673.47;5047916;28;20029;-72
2023/05/22 00:39:06;;;;;;;30.80;9.00;;;;;;;-146.27;96.42;82685.50;5041379;28;20438;-73
2023/05/22 00:41:34;;;;;;;26.23;9.35;;;;;;;-146.27;97.46;82719.66;5046259;28;20035;-73
2023/05/22 00:44:01;;;;;;;19.40;8.68;;;;;;;-146.27;97.24;82725.69;5050247;28;20365;-73
2023/05/22 00:46:27;;;;;;;21.65;8.90;;;;;;;-146.27;97.24;82709.63;5049383;28;20025;-73
2023/05/22 00:48:52;;;;;;;18.02;8.32;;;;;;;-146.27;97.08;82701.59;5036015;28;20397;-72
2023/05/22 00:51:21;;;;;;;21.35;7.43;;;;;;;-146.27;97.45;82687.53;5035052;28;20029;-72
2023/05/22 00:53:48;;;;;;;27.48;8.15;;;;;;;-146.27;97.29;82713.66;5040880;28;20112;-72
2023/05/22 00:56:14;;;;;;;31.80;9.77;;;;;;;-146.27;98.36;82677.47;5039844;28;20037;-72
2023/05/22 00:58:40;;;;;;;24.55;7.78;;;;;;;-146.27;97.42;82677.47;5033400;28;20037;-72
2023/05/22 01:01:08;;;;;;;22.13;9.60;;;;;;;-146.27;97.32;82631.28;5042596;28;20056;-72
2023/05/22 01:03:36;;;;;;;25.13;8.27;;;;;;;-146.27;96.95;82721.69;5038062;28;20025;-72
2023/05/22 01:06:02;;;;;;;26.08;9.00;;;;;;;-146.27;96.55;82719.66;5042989;28;20429;-72
2023/05/22 01:08:28;;;;;;;24.08;9.30;;;;;;;-146.27;97.15;82713.66;5053307;28;20118;-72
2023/05/22 01:11:03;;;;;;;20.20;8.73;;;;;;;-146.27;97.24;82713.66;5053219;28;20153;-72
2023/05/22 01:13:59;;;;;;;26.10;10.20;;;;;;;-146.27;97.68;82689.53;5053382;28;20028;-71
2023/05/22 01:16:43;;;;;;;27.48;8.57;;;;;;;-146.27;97.97;82713.66;5053399;28;20037;-71
2023/05/22 01:19:34;;;;;;;19.50;8.80;;;;;;;-146.27;98.64;82739.75;5043778;28;20455;-71
2023/05/22 01:22:25;;;;;;;19.83;7.82;;;;;;;-146.27;98.43;82729.72;5041056;28;20572;-71
2023/05/22 01:25:07;;;;;;;24.80;8.38;;;;;;;-146.27;98.81;82707.63;5059831;28;20029;-73
2023/05/22 01:28:01;;;;;;;31.00;9.05;;;;;;;-146.27;98.76;82713.66;5054601;28;20053;-73
2023/05/22 01:31:03;;;;;;;28.08;9.32;;;;;;;-146.27;98.35;82713.66;5032628;28;20033;-73
2023/05/22 01:33:40;;;;;;;25.27;9.48;;;;;;;-146.27;97.91;82749.81;5049864;28;20017;-73
2023/05/22 01:36:07;;;;;;;30.58;8.95;;;;;;;-146.27;99.35;82751.81;5033370;28;20033;-73
2023/05/22 01:38:33;;;;;;;34.20;10.55;;;;;;;-146.27;98.79;82767.88;5052448;28;20035;-73
2023/05/22 01:41:00;;;;;;;34.40;10.80;;;;;;;-146.27;99.88;82769.91;5047097;28;20029;-72
2023/05/22 01:43:26;;;;;;;32.30;11.25;;;;;;;-146.27;100.00;82789.97;5052467;28;20048;-72
2023/05/22 01:45:51;;;;;;;29.73;11.05;;;;;;;-146.27;99.68;82761.84;5055420;28;20059;-72
2023/05/22 01:48:16;;;;;;;37.90;11.65;;;;;;;-146.27;99.46;82787.97;5052758;28;20078;-72
2023/05/22 01:50:42;;;;;;;33.63;13.48;;;;;;;-146.27;100.00;82775.91;5046329;28;20028;-72
2023/05/22 01:53:17;;;;;;;27.08;10.90;;;;;;;-146.27;100.00;82794.00;5049764;28;20025;-72
2023/05/22 01:55:56;;;;;;;23.77;9.95;;;;;;;-146.27;100.00;82781.94;5052676;28;20039;-72
2023/05/22 01:58:38;;;;;;;26.85;10.55;;;;;;;-146.27;100.00;82800.03;5033394;28;20026;-72
2023/05/22 02:01:05;;;;;;;28.23;11.80;;;;;;;-146.27;100.00;82880.41;5047564;28;20041;-72
2023/05/22 02:03:33;;;;;;;40.70;11.90;;;;;;;-146.27;100.00;82812.09;5053342;28;20026;-72
2023/05/22 02:06:03;;;;;;;34.80;12.57;;;;;;;-146.27;100.00;82854.28;5055105;28;20035;-73
2023/05/22 02:08:30;;;;;;;25.45;11.18;;;;;;;-146.27;100.00;82818.13;5049355;28;20040;-72
2023/05/22 02:10:56;;;;;;;34.13;12.93;;;;;;;-146.27;100.00;82864.31;5041316;28;20068;-72
2023/05/22 02:13:22;;;;;;;27.35;12.93;;;;;;;-146.27;100.00;82926.59;5042330;28;20037;-73
2023/05/22 02:15:49;;;;;;;34.40;13.13;;;;;;;-146.27;100.00;82878.38;5052973;28;20024;-73
2023/05/22 02:18:15;;;;;;;26.27;12.98;;;;;;;-146.27;100.00;82926.59;5044368;28;20024;-73
2023/05/22 02:20:41;;;;;;;29.58;13.35;;;;;;;-146.27;100.00;82934.63;5049471;28;20039;-74
2023/05/22 02:23:06;;;;;;;39.13;13.13;;;;;;;-146.27;100.00;82958.75;5043256;28;20076;-73
2023/05/22 02:25:31;;;;;;;41.40;14.27;;;;;;;-146.27;100.00;82886.41;5060565;28;20048;-72
2023/05/22 02:27:57;;;;;;;49.03;14.60;;;;;;;-146.27;100.00;82902.50;5046680;28;20029;-72
2023/05/22 02:30:22;;;;;;;34.83;13.68;;;;;;;-146.27;100.00;82880.41;5047289;28;20024;-69
2023/05/22 02:32:48;;;;;;;30.27;12.50;;;;;;;-146.27;100.00;82898.47;5050903;28;20029;-69
2023/05/22 02:35:13;;;;;;;27.67;11.88;;;;;;;-146.27;100.00;82888.44;5054873;28;20061;-68
2023/05/22 02:37:38;;;;;;;31.27;13.13;;;;;;;-146.27;100.00;82902.50;5043840;28;20488;-69
2023/05/22 02:40:05;;;;;;;28.85;12.50;;;;;;;-146.27;100.00;82904.50;5045141;28;20029;-68
2023/05/22 02:42:30;;;;;;;30.58;13.38;;;;;;;-146.27;100.00;82830.16;5052875;28;20028;-71
2023/05/22 02:44:56;;;;;;;35.15;13.77;;;;;;;-146.27;100.00;82874.38;5053088;28;20017;-69
2023/05/22 02:47:21;;;;;;;28.10;12.75;;;;;;;-146.27;100.00;82930.63;5051403;28;20052;-68
2023/05/22 02:49:46;;;;;;;29.30;13.25;;;;;;;-146.27;100.00;82924.59;5051423;28;20017;-68
2023/05/22 02:52:12;;;;;;;34.95;14.52;;;;;;;-146.27;100.00;82914.53;5053389;28;20539;-68
2023/05/22 02:54:37;;;;;;;35.03;14.93;;;;;;;-146.27;100.00;82894.47;5051653;28;20454;-67
2023/05/22 02:57:03;;;;;;;37.17;14.35;;;;;;;-146.27;100.00;82856.28;5051863;28;20499;-69
2023/05/22 02:59:28;;;;;;;28.45;14.32;;;;;;;-146.27;100.00;82894.47;5040883;28;20017;-68
2023/05/22 03:01:54;;;;;;;39.58;14.75;;;;;;;-146.27;100.00;82886.41;5051456;28;20032;-68
2023/05/22 03:04:20;;;;;;;34.28;14.27;;;;;;;-146.27;100.00;82910.53;5051048;28;20033;-68
2023/05/22 03:06:45;;;;;;;31.80;14.43;;;;;;;-146.27;100.00;82922.59;5037433;28;20033;-69
2023/05/22 03:09:11;;;;;;;31.58;15.40;;;;;;;-146.27;100.00;82886.41;5062609;28;20548;-67
2023/05/22 03:11:36;;;;;;;36.67;15.10;;;;;;;-146.27;100.00;82866.31;5034033;28;20115;-69
2023/05/22 03:14:02;;;;;;;31.90;13.43;;;;;;;-146.27;100.00;82862.31;5046673;28;20026;-70
2023/05/22 03:16:27;;;;;;;38.10;15.88;;;;;;;-146.27;100.00;82800.03;5050767;28;20032;-70
2023/05/22 03:19:12;;;;;;;27.05;13.30;;;;;;;-146.27;100.00;82882.41;5050992;28;20077;-70
2023/05/22 03:21:39;;;;;;;31.23;13.88;;;;;;;-146.27;100.00;82838.19;5036762;28;20413;-69
2023/05/22 03:24:05;;;;;;;36.63;15.88;;;;;;;-146.27;100.00;82850.25;5040361;28;20035;-69
2023/05/22 03:26:30;;;;;;;38.80;15.18;;;;;;;-146.27;100.00;82826.16;5049864;28;20060;-68
2023/05/22 03:28:56;;;;;;;32.08;14.90;;;;;;;-146.27;100.00;82866.31;5050539;28;20465;-69
2023/05/22 03:31:23;;;;;;;32.63;14.00;;;;;;;-146.27;100.00;82838.19;5051641;28;20128;-69
2023/05/22 03:33:48;;;;;;;35.60;14.05;;;;;;;-146.27;100.00;82836.19;5039473;28;20170;-72
2023/05/22 03:36:14;;;;;;;29.92;14.55;;;;;;;-146.27;100.00;82860.31;5048675;28;20066;-72
2023/05/22 03:38:40;;;;;;;38.13;15.27;;;;;;;-146.27;100.00;82854.28;5040943;28;20036;-72
2023/05/22 03:41:06;;;;;;;30.00;15.02;;;;;;;-146.27;100.00;82834.19;5059697;28;20082;-72
2023/05/22 03:43:32;;;;;;;35.90;15.55;;;;;;;-146.27;100.00;82814.09;5050082;28;20044;-72
2023/05/22 03:45:58;;;;;;;34.90;14.13;;;;;;;-146.27;100.00;82850.25;5033684;28;20041;-72
2023/05/22 03:48:23;;;;;;;33.33;15.80;;;;;;;-146.27;100.00;82820.13;5050786;28;20393;-72
2023/05/22 03:50:48;;;;;;;37.17;16.23;;;;;;;-146.27;100.00;82838.19;5042979;28;20515;-72
2023/05/22 03:53:14;;;;;;;45.20;15.50;;;;;;;-146.27;100.00;82852.25;5045239;28;20246;-72
2023/05/22 03:55:39;;;;;;;42.80;16.55;;;;;;;-146.27;100.00;82822.13;5043905;28;20702;-72
2023/05/22 03:58:05;;;;;;;36.85;15.65;;;;;;;-146.27;100.00;82798.03;5042062;28;20052;-72
2023/05/22 04:00:32;;;;;;;39.47;16.33;;;;;;;-146.27;100.00;82796.00;5043298;28;20524;-72
2023/05/22 04:02:57;;;;;;;41.65;17.67;;;;;;;-146.27;100.00;82844.22;5031993;28;20045;-71
2023/05/22 04:05:23;;;;;;;38.45;16.13;;;;;;;-146.27;100.00;82814.09;5045863;28;20386;-73
2023/05/22 04:07:48;;;;;;;46.25;15.30;;;;;;;-146.27;100.00;82794.00;5036938;28;20020;-73
2023/05/22 04:10:14;;;;;;;44.78;18.33;;;;;;;-146.27;100.00;82824.13;5047211;28;20034;-72
2023/05/22 04:12:39;;;;;;;44.08;16.05;;;;;;;-146.27;100.00;82818.13;5049072;28;20078;-73
2023/05/22 04:15:06;;;;;;;38.35;15.93;;;;;;;-146.27;100.00;82838.19;5054660;28;20476;-72
2023/05/22 04:17:34;;;;;;;42.15;16.88;;;;;;;-146.27;100.00;82812.09;5030513;28;20044;-72
2023/05/22 04:20:00;;;;;;;46.47;16.48;;;;;;;-146.27;100.00;82822.13;5049705;28;20098;-71
2023/05/22 04:22:26;;;;;;;38.92;17.48;;;;;;;-146.27;100.00;82852.25;5034591;28;20470;-73
2023/05/22 04:24:52;;;;;;;51.00;16.08;;;;;;;-146.27;100.00;82866.31;5043930;28;20028;-72
2023/05/22 04:27:20;;;;;;;41.78;17.20;;;;;;;-146.27;100.00;82816.09;5049798;28;20040;-72
2023/05/22 04:29:46;;;;;;;37.30;16.80;;;;;;;-146.27;100.00;82838.19;5043176;28;20037;-73
2023/05/22 04:32:11;;;;;;;33.90;15.02;;;;;;;-146.27;100.00;82842.22;5048575;28;20431;-72
2023/05/22 04:34:37;;;;;;;46.30;17.80;;;;;;;-146.27;100.00;82836.19;5046381;28;20616;-73
2023/05/22 04:37:03;;;;;;;40.70;16.05;;;;;;;-146.27;100.00;82872.34;5052180;28;20032;-73
2023/05/22 04:39:30;;;;;;;36.58;16.95;;;;;;;-146.27;100.00;82858.28;5048536;28;20025;-72
2023/05/22 04:41:55;;;;;;;45.85;17.00;;;;;;;-146.27;100.00;82882.41;5054035;28;20020;-72
2023/05/22 04:44:21;;;;;;;41.03;15.68;;;;;;;-146.27;100.00;82880.41;5063764;28;20128;-72
2023/05/22 04:46:47;;;;;;;47.33;16.55;;;;;;;-146.27;100.00;82866.31;5057420;28;20033;-73
2023/05/22 04:49:13;;;;;;;45.38;18.70;;;;;;;-146.27;100.00;82838.19;5035013;28;20075;-73
2023/05/22 04:51:38;;;;;;;46.35;17.48;;;;;;;-146.27;100.00;82872.34;5053745;28;20036;-72
2023/05/22 04:54:04;;;;;;;48.80;16.85;;;;;;;-146.27;100.00;82838.19;5051060;28;20021;-72
2023/05/22 04:56:30;;;;;;;42.95;16.80;;;;;;;-146.27;100.00;82892.44;5048991;28;20024;-71
2023/05/22 04:58:56;;;;;;;57.67;18.02;;;;;;;-146.27;100.00;82846.25;5052673;28;20389;-72
2023/05/22 05:01:21;;;;;;;40.40;16.40;;;;;;;-146.27;100.00;82828.16;5049487;28;20028;-73
2023/05/22 05:03:47;;;;;;;50.42;18.08;;;;;;;-146.27;100.00;82814.09;5047683;28;20025;-69
2023/05/22 05:06:12;;;;;;;42.85;17.52;;;;;;;-146.27;100.00;82824.13;5058723;28;20040;-69
2023/05/22 05:08:38;;;;;;;42.97;17.02;;;;;;;-146.27;100.00;82850.25;5054035;28;20345;-71
2023/05/22 05:11:03;;;;;;;50.58;18.38;;;;;;;-146.27;100.00;82826.16;5052086;28;20049;-69
2023/05/22 05:13:29;;;;;;;42.40;15.00;;;;;;;-146.27;100.00;82854.28;5066143;28;20032;-69
2023/05/22 05:15:54;;;;;;;40.35;16.15;;;;;;;-146.27;100.00;82834.19;5048352;28;20028;-69
2023/05/22 05:18:20;;;;;;;46.33;16.67;;;;;;;-146.27;100.00;82818.13;5052038;28;20534;-69
2023/05/22 05:20:45;;;;;;;51.50;17.98;;;;;;;-146.27;100.00;82834.19;5052470;28;20029;-68
2023/05/22 05:23:10;;;;;;;41.60;17.88;;;;;;;-146.27;100.00;82848.25;5047663;28;20112;-69
2023/05/22 05:25:37;;;;;;;49.55;18.02;;;;;;;-146.27;100.00;82783.97;5052918;28;20037;-70
2023/05/22 05:28:09;;;;;;;41.60;17.48;;;;;;;-146.27;100.00;82806.06;5052528;28;20503;-69
2023/05/22 05:30:35;;;;;;;48.30;16.23;;;;;;;-146.27;100.00;82806.06;5053377;28;20086;-69
2023/05/22 05:33:01;;;;;;;41.60;16.38;;;;;;;-146.27;100.00;82826.16;5039503;28;20511;-69
2023/05/22 05:35:26;;;;;;;40.33;16.63;;;;;;;-146.27;100.00;82794.00;5038626;28;20101;-68
2023/05/22 05:37:51;;;;;;;42.00;17.80;;;;;;;-146.27;100.00;82810.06;5047379;28;20051;-69
2023/05/22 05:40:17;;;;;;;62.58;19.08;;;;;;;-146.27;100.00;82796.00;5046573;28;20083;-69
2023/05/22 05:42:42;;;;;;;48.03;16.80;;;;;;;-146.27;100.00;82779.94;5049347;28;20507;-68
2023/05/22 05:45:08;;;;;;;51.17;18.88;;;;;;;-146.27;100.00;82737.75;5040778;28;20475;-70
2023/05/22 05:47:33;;;;;;;47.47;19.05;;;;;;;-146.27;100.00;82761.84;5049899;28;20040;-70
2023/05/22 05:49:59;;;;;;;44.17;18.80;;;;;;;-146.27;100.00;82727.72;5051226;28;20050;-68
2023/05/22 05:52:26;;;;;;;49.28;18.33;;;;;;;-146.27;100.00;82723.69;5048707;28;20071;-68
2023/05/22 05:54:51;;;;;;;40.13;18.23;;;;;;;-146.27;100.00;82729.72;5051299;28;20052;-68
2023/05/22 05:57:16;;;;;;;43.42;18.08;;;;;;;-146.27;100.00;82709.63;5053046;28;20450;-68
2023/05/22 05:59:42;;;;;;;39.83;17.48;;;;;;;-146.27;100.00;82675.47;5054059;28;20021;-67
2023/05/22 06:02:08;;;;;;;45.63;18.45;;;;;;;-146.27;100.00;82657.41;5050260;28;20086;-68
2023/05/22 06:04:34;;;;;;;43.33;17.42;;;;;;;-146.27;100.00;82673.47;5035806;28;20037;-69
2023/05/22 06:07:00;;;;;;;41.38;19.02;;;;;;;-146.27;100.00;82643.31;5052778;28;20033;-70
2023/05/22 06:09:26;;;;;;;42.30;17.48;;;;;;;-146.27;100.00;82661.41;5056388;28;20481;-69
2023/05/22 06:11:51;;;;;;;42.20;17.45;;;;;;;-146.27;100.00;82635.28;5056691;28;20055;-70
2023/05/22 06:14:16;;;;;;;30.20;16.05;;;;;;;-146.27;100.00;82605.16;5060541;28;20016;-69
2023/05/22 06:16:42;;;;;;;44.20;17.20;;;;;;;-146.27;100.00;82621.22;5059288;28;20085;-69
2023/05/22 06:19:07;;;;;;;39.90;17.20;;;;;;;-146.27;100.00;82593.09;5057612;28;20040;-68
2023/05/22 06:21:32;;;;;;;42.25;17.42;;;;;;;-146.27;100.00;82589.09;5057066;28;20033;-69
2023/05/22 06:23:58;;;;;;;41.08;16.88;;;;;;;-146.27;100.00;82558.97;5044084;28;20029;-70
2023/05/22 06:26:24;;;;;;;37.35;17.17;;;;;;;-146.27;100.00;82605.16;5046789;28;20463;-69
2023/05/22 06:28:50;;;;;;;35.80;15.77;;;;;;;-146.27;100.00;82569.00;5047258;28;20193;-68
2023/05/22 06:31:16;;;;;;;39.28;16.65;;;;;;;-146.27;100.00;82597.13;5051429;28;20323;-69
2023/05/22 06:33:41;;;;;;;38.17;16.30;;;;;;;-146.27;100.00;82585.06;5043186;28;20052;-67
2023/05/22 06:36:07;;;;;;;40.10;16.65;;;;;;;-146.27;100.00;82583.06;5052219;28;20051;-67
2023/05/22 06:38:33;;;;;;;41.10;15.20;;;;;;;-146.27;100.00;82571.00;5041574;28;20029;-69
2023/05/22 06:40:58;;;;;;;35.83;15.32;;;;;;;-146.27;100.00;82591.09;5038799;28;20040;-67
2023/05/22 06:43:24;;;;;;;33.22;14.13;;;;;;;-146.27;100.00;82518.78;5055271;28;20029;-67
2023/05/22 06:45:49;;;;;;;42.90;16.02;;;;;;;-146.27;100.00;82542.88;5065641;28;20332;-70
2023/05/22 06:48:15;;;;;;;40.28;16.98;;;;;;;-146.27;100.00;82504.72;5052510;28;20029;-69
2023/05/22 06:50:40;;;;;;;51.72;16.05;;;;;;;-146.27;100.00;82569.00;5038450;28;20025;-70
2023/05/22 06:53:06;;;;;;;39.00;16.10;;;;;;;-146.27;100.00;82619.22;5038573;28;20033;-70
2023/05/22 06:55:31;;;;;;;35.90;15.27;;;;;;;-146.27;100.00;82556.94;5050274;28;20029;-69
2023/05/22 06:57:57;;;;;;;34.90;15.15;;;;;;;-146.27;100.00;82631.28;5050987;28;20114;-70
2023/05/22 07:00:22;;;;;;;36.90;16.23;;;;;;;-146.27;100.00;82581.06;5049258;28;20028;-72
2023/05/22 07:02:48;;;;;;;35.67;17.45;;;;;;;-146.27;100.00;82575.03;5049986;28;20676;-72
2023/05/22 07:05:13;;;;;;;30.95;16.05;;;;;;;-146.27;100.00;82536.84;5051457;28;20086;-72
2023/05/22 07:07:39;;;;;;;41.25;17.33;;;;;;;-146.27;100.00;82567.00;5051291;28;20100;-72
2023/05/22 07:10:05;;;;;;;48.30;17.38;;;;;;;-146.27;100.00;82528.81;5041907;28;20028;-73
2023/05/22 07:12:33;;;;;;;40.55;17.40;;;;;;;-146.27;100.00;82528.81;5052593;28;20025;-70
2023/05/22 07:15:00;;;;;;;41.92;17.05;;;;;;;-146.27;100.00;82569.00;5047613;28;20059;-71
2023/05/22 07:17:26;;;;;;;34.90;14.85;;;;;;;-146.27;100.00;82508.72;5039273;28;20510;-72
2023/05/22 07:19:51;;;;;;;36.65;16.80;;;;;;;-146.27;100.00;82502.72;5050944;28;20048;-73
2023/05/22 07:22:16;;;;;;;35.60;16.23;;;;;;;-146.27;100.00;82472.56;5051004;28;20025;-72
2023/05/22 07:24:42;;;;;;;44.58;16.90;;;;;;;-146.27;100.00;82434.41;5051842;28;20036;-72
2023/05/22 07:27:08;;;;;;;35.90;16.17;;;;;;;-146.27;100.00;82428.38;5044561;28;20060;-71
2023/05/22 07:29:33;;;;;;;39.13;17.90;;;;;;;-146.27;100.00;82390.22;5049999;28;20060;-73
2023/05/22 07:31:59;;;;;;;33.92;15.82;;;;;;;-146.27;100.00;82362.09;5049409;28;20105;-72
2023/05/22 07:34:30;;;;;;;38.30;15.82;;;;;;;-146.27;100.00;82337.97;5049839;28;20025;-71
2023/05/22 07:36:56;;;;;;;39.38;15.27;;;;;;;-146.27;100.00;82311.88;5041903;28;20017;-73
2023/05/22 07:39:21;;;;;;;27.45;14.02;;;;;;;-146.27;100.00;82311.88;5029407;28;20037;-72
2023/05/22 07:41:50;;;;;;;36.35;14.07;;;;;;;-146.27;99.70;82303.84;5043334;28;20025;-71
2023/05/22 07:44:16;;;;;;;30.63;13.48;;;;;;;-146.27;99.64;82305.84;5039767;28;20488;-72
2023/05/22 07:46:42;;;;;;;30.38;13.98;;;;;;;-146.27;99.80;82331.97;5049911;28;20035;-73
2023/05/22 07:49:07;;;;;;;28.67;14.40;;;;;;;-146.27;99.68;82291.78;5047284;28;20036;-71
2023/05/22 07:51:33;;;;;;;29.25;14.32;;;;;;;-146.27;99.27;82255.63;5045374;28;20500;-72
2023/05/22 07:53:58;;;;;;;30.52;13.10;;;;;;;-146.27;98.09;82295.81;5047585;28;20017;-73
2023/05/22 07:56:26;;;;;;;29.45;12.63;;;;;;;-146.27;98.03;82237.53;5050359;28;20488;-73
2023/05/22 07:58:51;;;;;;;32.83;13.60;;;;;;;-146.27;97.32;82235.53;5049911;28;20112;-72
2023/05/22 08:01:17;;;;;;;27.27;11.35;;;;;;;-146.27;97.02;82175.28;5049258;28;20103;-72
2023/05/22 08:03:42;;;;;;;26.02;12.80;;;;;;;-146.27;96.55;82239.56;5048622;28;20029;-73
2023/05/22 08:06:08;;;;;;;26.58;12.10;;;;;;;-146.27;96.84;82189.34;5043398;28;20025;-73
2023/05/22 08:08:33;;;;;;;32.10;12.95;;;;;;;-146.27;97.13;82151.16;5052867;28;20035;-72
2023/05/22 08:10:59;;;;;;;28.95;13.23;;;;;;;-146.27;97.43;82123.06;5054114;28;20445;-73
2023/05/22 08:13:26;;;;;;;31.02;12.25;;;;;;;-146.27;97.22;82062.78;5048210;28;20499;-72
2023/05/22 08:15:52;;;;;;;29.48;11.93;;;;;;;-146.27;96.31;82078.84;5039324;28;20017;-73
2023/05/22 08:18:18;;;;;;;26.65;11.88;;;;;;;-146.27;96.16;82050.75;5044615;28;20109;-72
2023/05/22 08:20:46;;;;;;;27.27;11.65;;;;;;;-146.27;94.46;82054.75;5047466;28;20507;-73
2023/05/22 08:23:11;;;;;;;28.02;11.65;;;;;;;-146.27;94.50;82066.81;5043704;28;20021;-72
2023/05/22 08:25:37;;;;;;;26.85;11.20;;;;;;;-146.27;94.36;82010.56;5054455;28;20478;-74
2023/05/22 08:28:02;;;;;;;28.25;12.27;;;;;;;-146.27;93.36;82024.63;5041026;28;20040;-73
2023/05/22 08:30:27;;;;;;;29.50;10.65;;;;;;;-146.27;92.67;82014.59;5042354;28;20037;-73
2023/05/22 08:32:53;;;;;;;28.40;11.05;;;;;;;-146.27;93.03;81962.34;5051839;28;20037;-73
2023/05/22 08:35:18;;;;;;;26.13;10.63;;;;;;;-146.27;92.24;81932.22;5041678;28;20464;-71
2023/05/22 08:37:43;;;;;;;23.77;9.60;;;;;;;-146.27;92.39;81886.03;5050753;28;20036;-71
2023/05/22 08:40:13;;;;;;;19.27;10.57;;;;;;;-146.27;91.75;81845.88;5050524;28;20031;-71
2023/05/22 08:42:39;;;;;;;27.98;12.50;;;;;;;-146.27;90.47;81837.81;5036502;28;20032;-73
2023/05/22 08:45:05;;;;;;;30.30;11.60;;;;;;;-146.27;89.67;81853.91;5046630;28;20029;-73
2023/05/22 08:47:33;;;;;;;23.23;11.50;;;;;;;-146.27;89.45;81865.94;5047722;28;20048;-73
2023/05/22 08:49:59;;;;;;;24.15;12.05;;;;;;;-146.27;89.67;81849.88;5046471;28;20104;-73
2023/05/22 08:52:33;;;;;;;25.45;11.30;;;;;;;-146.27;88.97;81785.59;5042180;28;20123;-73
2023/05/22 08:54:58;;;;;;;;;;;;;;;-146.27;87.80;81805.69;5052574;28;20028;-71
2023/05/22 08:57:25;;;;;;;25.92;10.80;;;;;;;-146.27;88.39;81811.72;5051690;28;19920;-73
2023/05/22 08:59:51;;;;;;;27.20;12.90;;;;;;;-146.27;88.79;81737.41;5051969;28;20036;-73
2023/05/22 09:02:17;;;;;;;25.92;12.13;;;;;;;-146.27;88.01;81749.47;5053021;28;20033;-73
2023/05/22 09:04:42;;;;;;;29.05;13.10;;;;;;;-146.27;88.65;81645.00;5053380;28;20520;-71
2023/05/22 09:07:08;;;;;;;29.65;11.82;;;;;;;-146.27;88.40;81636.97;5051070;28;20104;-73
2023/05/22 09:09:40;;;;;;;27.70;12.65;;;;;;;-146.27;86.96;81634.97;5048365;28;20025;-74
2023/05/22 09:12:09;;;;;;;23.77;11.85;;;;;;;-146.27;88.08;81588.78;5033331;28;20046;-71
2023/05/22 09:14:44;;;;;;;25.00;13.35;;;;;;;-146.27;87.19;81566.69;5032035;28;20109;-71
2023/05/22 09:17:13;;;;;;;26.83;12.73;;;;;;;-146.27;85.83;81534.56;5033121;28;20094;-75
2023/05/22 09:19:45;;;;;;;28.70;13.05;;;;;;;-146.27;85.19;81490.38;5041877;28;20031;-73
2023/05/22 09:22:11;;;;;;;22.67;11.95;;;;;;;-146.27;86.05;81486.34;5053044;28;20032;-72
2023/05/22 09:24:38;;;;;;;27.45;12.77;;;;;;;-146.27;84.75;81456.22;5049154;28;20025;-72
2023/05/22 09:27:05;;;;;;;22.63;11.32;;;;;;;-146.27;84.70;81397.97;5052847;28;20032;-72
2023/05/22 09:29:31;;;;;;;30.10;13.13;;;;;;;-146.27;84.47;81383.94;5046842;28;20021;-72
2023/05/22 09:31:58;;;;;;;27.98;12.32;;;;;;;-146.27;84.05;81381.91;5031510;28;20040;-73
2023/05/22 09:34:27;;;;;;;22.27;11.15;;;;;;;-146.27;84.16;81333.72;5033177;28;20032;-73
2023/05/22 09:37:01;;;;;;;29.08;13.77;;;;;;;-146.27;82.60;81287.53;5032503;28;20116;-72
2023/05/22 09:39:38;;;;;;;25.02;13.43;;;;;;;-146.27;80.73;81253.38;5035368;28;20027;-73
2023/05/22 09:42:04;;;;;;;19.00;11.73;;;;;;;-146.27;81.11;81263.44;5051829;28;20606;-73
2023/05/22 09:44:29;;;;;;;28.45;14.20;;;;;;;-146.27;80.70;81187.13;5052468;28;20060;-73
2023/05/22 09:46:54;;;;;;;23.48;13.10;;;;;;;-146.27;79.96;81152.97;5052467;28;20025;-73
2023/05/22 09:49:20;;;;;;;21.02;13.00;;;;;;;-146.27;79.60;81134.91;5050819;28;20098;-73
2023/05/22 09:51:46;;;;;;;27.95;16.25;;;;;;;-146.27;81.05;81114.81;5052305;28;20029;-73
2023/05/22 09:54:14;;;;;;;28.90;14.35;;;;;;;-146.27;79.35;81098.75;5051234;28;20021;-72
2023/05/22 09:56:43;;;;;;;29.77;14.15;;;;;;;-146.27;77.86;81110.81;5052437;28;20323;-73
2023/05/22 09:59:10;;;;;;;27.90;13.25;;;;;;;-146.27;77.92;81110.81;5039855;28;20026;-73
2023/05/22 10:01:37;;;;;;;23.17;12.95;;;;;;;-146.27;77.74;81074.66;5035042;28;20064;-74
2023/05/22 10:04:03;;;;;;;22.15;12.55;;;;;;;-146.27;77.34;81159.00;5032020;28;20425;-73
2023/05/22 10:06:30;;;;;;;29.05;12.05;;;;;;;-146.27;77.74;81088.72;5032337;28;20033;-73
2023/05/22 10:09:03;;;;;;;27.45;11.98;;;;;;;-146.27;76.91;81086.72;5032036;28;20031;-73
2023/05/22 10:11:31;;;;;;;26.52;12.20;;;;;;;-146.27;77.05;81138.91;5031959;28;20049;-73
2023/05/22 10:13:58;;;;;;;25.63;12.38;;;;;;;-146.27;77.67;81126.88;5032119;28;20024;-72
2023/05/22 10:16:25;;;;;;;21.77;11.00;;;;;;;-146.27;77.87;81118.84;5048083;28;20033;-71
2023/05/22 10:18:52;;;;;;;25.48;12.55;;;;;;;-146.27;77.62;80990.31;5051367;28;20053;-73
2023/05/22 10:21:18;;;;;;;30.42;13.13;;;;;;;-146.27;75.34;80978.28;5037981;28;20496;-72
2023/05/22 10:23:44;;;;;;;22.25;12.02;;;;;;;-146.27;77.74;80934.09;5032509;28;20025;-74
2023/05/22 10:26:10;;;;;;;28.95;13.23;;;;;;;-146.27;77.01;80897.94;5038400;28;20473;-72
2023/05/22 10:28:49;;;;;;;31.35;14.63;;;;;;;-146.27;78.33;80809.59;5047633;28;20017;-73
2023/05/22 10:31:31;;;;;;;28.65;14.70;;;;;;;-146.27;73.64;80769.44;5040253;28;20033;-71
2023/05/22 10:34:06;;;;;;;22.77;14.48;;;;;;;-146.27;74.63;80721.25;5033237;28;20513;-72
2023/05/22 10:36:50;;;;;;;29.27;14.10;;;;;;;-146.27;75.80;80624.88;5031944;28;20025;-71
2023/05/22 10:39:25;;;;;;;28.23;12.65;;;;;;;-146.27;72.58;80618.84;5050154;28;20029;-74
2023/05/22 10:41:50;;;;;;;21.60;11.00;;;;;;;-146.27;72.41;80600.75;5044081;28;20017;-74
2023/05/22 10:44:17;;;;;;;23.42;12.32;;;;;;;-146.27;74.73;80496.34;5041334;28;20051;-74
2023/05/22 10:46:47;;;;;;;26.45;13.15;;;;;;;-146.27;71.64;80518.44;5043366;28;20025;-72
2023/05/22 10:49:20;;;;;;;25.20;12.50;;;;;;;-146.27;69.85;80558.59;5031499;28;20025;-73
2023/05/22 10:51:45;;;;;;;22.63;11.10;;;;;;;-146.27;67.55;80524.47;5031251;28;20056;-72
2023/05/22 10:54:11;;;;;;;24.40;12.02;;;;;;;-146.27;68.30;80600.75;5031614;28;20061;-73
2023/05/22 10:56:37;;;;;;;30.77;12.48;;;;;;;-146.27;68.76;80546.56;5033424;28;20040;-72
2023/05/22 10:59:04;;;;;;;25.63;12.52;;;;;;;-146.27;68.19;80614.81;5037103;28;20021;-73